createdAt,value
2023-09-17T00:01:02.798Z,19.48
2023-09-17T00:05:02.938Z,19.55
2023-09-17T00:09:05.743Z,19.48
2023-09-17T00:13:09.029Z,19.44
2023-09-17T00:17:11.148Z,19.41
2023-09-17T00:21:11.224Z,19.33
2023-09-17T00:25:12.154Z,19.15
2023-09-17T00:29:14.676Z,19.20
2023-09-17T00:33:18.418Z,19.23
2023-09-17T00:37:19.551Z,18.87
2023-09-17T00:41:19.661Z,19.23
2023-09-17T00:45:19.766Z,19.17
2023-09-17T00:49:29.830Z,19.10
2023-09-17T00:53:31.105Z,18.88
2023-09-17T00:57:31.335Z,19.18
2023-09-17T01:01:33.686Z,19.10
2023-09-17T01:05:43.912Z,19.07
2023-09-17T01:09:44.561Z,19.07
2023-09-17T01:13:59.731Z,19.06
2023-09-17T01:18:05.843Z,19.11
2023-09-17T01:22:13.182Z,18.99
2023-09-17T01:26:19.319Z,19.01
2023-09-17T01:30:22.383Z,19.14
2023-09-17T01:34:24.878Z,18.93
2023-09-17T01:38:37.668Z,18.71
2023-09-17T01:42:40.044Z,18.66
2023-09-17T01:46:47.878Z,18.87
2023-09-17T01:50:48.739Z,18.79
2023-09-17T01:54:48.385Z,18.56
2023-09-17T01:58:49.540Z,18.66
2023-09-17T02:02:55.404Z,18.56
2023-09-17T02:06:57.028Z,18.68
2023-09-17T02:10:59.453Z,18.64
2023-09-17T02:15:10.784Z,18.63
2023-09-17T02:19:28.312Z,18.56
2023-09-17T02:23:58.206Z,18.44
2023-09-17T02:27:59.789Z,18.37
2023-09-17T02:32:00.542Z,18.33
2023-09-17T02:36:07.066Z,18.24
2023-09-17T02:40:10.943Z,17.84
2023-09-17T02:44:12.100Z,18.20
2023-09-17T02:48:13.019Z,18.27
2023-09-17T02:52:18.956Z,18.16
2023-09-17T02:56:19.777Z,17.97
2023-09-17T03:00:22.530Z,18.13
2023-09-17T03:04:22.573Z,18.15
2023-09-17T03:08:24.886Z,18.26
2023-09-17T03:12:44.550Z,18.27
2023-09-17T03:16:44.791Z,17.90
2023-09-17T03:21:07.920Z,18.22
2023-09-17T03:25:11.443Z,18.20
2023-09-17T03:29:18.746Z,18.06
2023-09-17T03:33:53.986Z,18.26
2023-09-17T03:38:03.636Z,17.97
2023-09-17T03:46:44.397Z,17.54
2023-09-17T03:50:45.068Z,17.81
2023-09-17T03:54:44.500Z,17.51
2023-09-17T03:58:46.849Z,17.24
2023-09-17T04:02:50.728Z,17.59
2023-09-17T04:06:50.993Z,17.37
2023-09-17T04:10:51.472Z,17.55
2023-09-17T04:14:56.718Z,17.54
2023-09-17T04:18:57.281Z,17.43
2023-09-17T04:23:04.924Z,17.35
2023-09-17T04:27:07.814Z,17.29
2023-09-17T04:31:10.506Z,17.61
2023-09-17T04:35:12.517Z,17.68
2023-09-17T04:39:21.007Z,17.90
2023-09-17T04:43:22.388Z,18.11
2023-09-17T04:47:25.559Z,18.13
2023-09-17T04:51:25.759Z,18.03
2023-09-17T04:55:29.235Z,18.34
2023-09-17T04:59:32.356Z,18.40
2023-09-17T05:03:43.847Z,18.76
2023-09-17T05:07:47.914Z,18.94
2023-09-17T05:11:47.663Z,18.87
2023-09-17T05:15:48.430Z,19.06
2023-09-17T05:20:02.145Z,19.35
2023-09-17T05:24:02.761Z,19.44
2023-09-17T05:28:07.636Z,19.56
2023-09-17T05:32:13.595Z,19.85
2023-09-17T05:36:23.396Z,20.03
2023-09-17T05:40:44.558Z,20.04
2023-09-17T05:45:14.614Z,20.17
2023-09-17T05:49:15.396Z,20.47
2023-09-17T05:53:24.601Z,20.07
2023-09-17T05:57:27.669Z,20.23
2023-09-17T06:01:31.168Z,20.15
2023-09-17T06:05:51.650Z,20.29
2023-09-17T06:10:20.604Z,20.40
2023-09-17T06:24:48.547Z,20.62
2023-09-17T06:28:56.539Z,20.62
2023-09-17T06:32:56.849Z,20.97
2023-09-17T06:36:57.483Z,21.38
2023-09-17T06:40:56.810Z,21.64
2023-09-17T06:44:58.619Z,21.65
2023-09-17T06:48:58.274Z,21.72
2023-09-17T06:52:58.070Z,21.51
2023-09-17T06:56:57.732Z,21.24
2023-09-17T07:00:59.450Z,21.37
2023-09-17T07:05:01.476Z,21.51
2023-09-17T07:09:01.252Z,21.69
2023-09-17T07:13:00.930Z,21.84
2023-09-17T07:17:07.233Z,21.90
2023-09-17T07:21:07.077Z,21.82
2023-09-17T07:25:07.253Z,22.08
2023-09-17T07:29:07.023Z,22.12
2023-09-17T07:33:09.406Z,22.32
2023-09-17T07:37:09.276Z,22.23
2023-09-17T07:41:08.963Z,22.19
2023-09-17T07:45:09.936Z,22.34
2023-09-17T07:49:11.834Z,22.55
2023-09-17T07:53:11.485Z,22.67
2023-09-17T07:57:13.460Z,22.74
2023-09-17T08:01:15.242Z,22.87
2023-09-17T08:05:17.167Z,23.01
2023-09-17T08:09:16.829Z,23.25
2023-09-17T08:13:17.144Z,23.73
2023-09-17T08:17:17.385Z,23.85
2023-09-17T08:21:19.324Z,23.57
2023-09-17T08:25:19.209Z,23.59
2023-09-17T08:29:20.976Z,23.77
2023-09-17T08:33:23.347Z,23.80
2023-09-17T08:37:25.507Z,23.69
2023-09-17T08:41:25.698Z,23.80
2023-09-17T08:45:26.839Z,24.27
2023-09-17T08:49:26.704Z,24.22
2023-09-17T08:53:31.967Z,24.56
2023-09-17T08:57:36.299Z,24.72
2023-09-17T09:01:39.655Z,25.10
2023-09-17T09:05:39.505Z,25.25
2023-09-17T09:09:41.887Z,25.32
2023-09-17T09:13:41.789Z,25.11
2023-09-17T09:17:42.331Z,25.30
2023-09-17T09:21:42.224Z,25.52
2023-09-17T09:25:44.073Z,25.52
2023-09-17T09:29:45.410Z,25.57
2023-09-17T09:33:45.462Z,25.68
2023-09-17T09:37:46.083Z,25.65
2023-09-17T09:41:47.906Z,25.76
2023-09-17T09:45:51.435Z,25.83
2023-09-17T12:58:23.827Z,28.04
2023-09-17T13:02:32.442Z,27.82
2023-09-17T13:06:33.931Z,27.87
2023-09-17T13:10:33.985Z,28.36
2023-09-17T13:14:38.596Z,28.53
2023-09-17T13:18:40.977Z,28.21
2023-09-17T13:22:40.879Z,27.94
2023-09-17T13:26:40.712Z,27.51
2023-09-17T13:30:44.368Z,27.45
2023-09-17T13:34:47.680Z,27.63
2023-09-17T13:38:49.130Z,27.87
2023-09-17T13:42:49.648Z,27.74
2023-09-17T13:46:51.320Z,27.93
2023-09-17T13:50:51.702Z,28.20
2023-09-17T13:54:51.614Z,28.00
2023-09-17T13:58:54.432Z,28.16
2023-09-17T14:02:56.234Z,27.99
2023-09-17T14:07:01.445Z,28.05
2023-09-17T14:11:15.530Z,27.70
2023-09-17T14:15:39.822Z,28.09
2023-09-17T14:20:20.637Z,28.39
2023-09-17T14:31:11.469Z,27.96
2023-09-17T14:34:21.652Z,27.37
2023-09-17T14:38:43.112Z,27.47
2023-09-17T14:52:55.113Z,26.90
2023-09-17T15:03:48.384Z,26.85
2023-09-17T15:07:51.192Z,26.66
2023-09-17T15:20:52.657Z,26.15
2023-09-17T15:24:55.180Z,26.21
2023-09-17T15:29:15.617Z,26.04
2023-09-17T15:33:26.891Z,26.06
2023-09-17T15:37:31.412Z,26.00
2023-09-17T15:41:33.016Z,25.69
2023-09-17T15:45:32.964Z,25.69
2023-09-17T15:49:32.510Z,25.53
2023-09-17T15:53:33.341Z,25.76
2023-09-17T15:57:37.684Z,25.59
2023-09-17T16:01:39.666Z,25.64
2023-09-17T16:05:39.619Z,25.57
2023-09-17T16:09:39.364Z,25.50
2023-09-17T16:13:41.239Z,25.57
2023-09-17T16:17:41.093Z,25.56
2023-09-17T16:21:48.013Z,25.33
2023-09-17T16:25:47.675Z,25.16
2023-09-17T16:30:05.699Z,25.17
2023-09-17T16:34:07.753Z,25.08
2023-09-17T16:38:18.489Z,25.00
2023-09-17T19:51:34.913Z,21.83
2023-09-17T19:55:49.977Z,21.80
2023-09-17T19:59:51.454Z,21.79
2023-09-17T20:04:00.376Z,21.48
2023-09-17T20:08:15.891Z,21.46
2023-09-17T20:12:17.240Z,21.56
2023-09-17T20:16:21.984Z,21.52
2023-09-17T20:20:24.205Z,21.19
2023-09-17T20:24:29.394Z,21.35
2023-09-17T20:28:34.402Z,21.28
2023-09-17T20:32:42.458Z,21.28
2023-09-17T20:36:48.945Z,21.09
2023-09-17T20:41:09.954Z,21.07
2023-09-17T20:45:19.664Z,20.95
2023-09-17T20:49:34.380Z,20.95
2023-09-17T20:54:26.999Z,20.77
2023-09-17T20:59:22.703Z,20.44
2023-09-17T21:03:35.784Z,20.78
2023-09-17T21:07:49.508Z,20.83
2023-09-17T21:12:05.374Z,20.79
2023-09-17T21:16:28.228Z,20.78
2023-09-17T21:20:59.891Z,20.75
2023-09-17T21:25:07.138Z,20.60
2023-09-17T21:29:21.708Z,20.61
2023-09-17T21:33:42.196Z,20.61
2023-09-17T21:38:04.492Z,20.48
2023-09-17T21:42:25.433Z,20.62
2023-09-17T21:46:51.787Z,20.65
2023-09-17T21:52:07.779Z,20.85
2023-09-17T21:57:09.054Z,21.00
2023-09-17T22:02:12.907Z,20.97
2023-09-17T22:24:15.679Z,20.53
2023-09-17T22:24:42.734Z,20.46
2023-09-17T22:29:39.181Z,20.61
2023-09-17T22:38:46.408Z,19.73
2023-09-17T22:43:03.642Z,19.66
2023-09-17T22:47:21.408Z,19.54
2023-09-17T22:51:35.336Z,19.24
2023-09-17T23:02:06.222Z,19.33
2023-09-17T23:06:50.800Z,18.93
